sensor_id;sensor_type;location;lat;lon;timestamp;P1;durP1;ratioP1;P2;durP2;ratioP2
43744;SDS011;29359;53.048;8.732;2023-02-28T00:00:31;11.23;;;5.88;;
43744;SDS011;29359;53.048;8.732;2023-02-28T00:02:33;10.68;;;5.20;;
43744;SDS011;29359;53.048;8.732;2023-02-28T00:04:34;7.50;;;5.03;;
43744;SDS011;29359;53.048;8.732;2023-02-28T00:06:36;12.70;;;5.38;;
43744;SDS011;29359;53.048;8.732;2023-02-28T00:08:37;7.10;;;5.05;;
43744;SDS011;29359;53.048;8.732;2023-02-28T00:10:39;16.33;;;5.50;;
43744;SDS011;29359;53.048;8.732;2023-02-28T00:12:41;8.70;;;5.55;;
43744;SDS011;29359;53.048;8.732;2023-02-28T00:14:42;12.38;;;5.28;;
43744;SDS011;29359;53.048;8.732;2023-02-28T00:16:44;9.73;;;5.80;;
43744;SDS011;29359;53.048;8.732;2023-02-28T00:18:46;9.48;;;5.30;;
43744;SDS011;29359;53.048;8.732;2023-02-28T00:20:48;8.65;;;5.43;;
43744;SDS011;29359;53.048;8.732;2023-02-28T00:22:50;10.57;;;5.57;;
43744;SDS011;29359;53.048;8.732;2023-02-28T00:24:53;10.77;;;5.85;;
43744;SDS011;29359;53.048;8.732;2023-02-28T00:26:55;11.52;;;5.55;;
43744;SDS011;29359;53.048;8.732;2023-02-28T00:28:56;10.93;;;5.25;;
43744;SDS011;29359;53.048;8.732;2023-02-28T00:30:58;10.40;;;5.90;;
43744;SDS011;29359;53.048;8.732;2023-02-28T00:33:01;11.07;;;5.60;;
43744;SDS011;29359;53.048;8.732;2023-02-28T00:35:03;9.57;;;6.47;;
43744;SDS011;29359;53.048;8.732;2023-02-28T00:37:06;9.05;;;5.60;;
43744;SDS011;29359;53.048;8.732;2023-02-28T00:39:08;11.82;;;6.43;;
43744;SDS011;29359;53.048;8.732;2023-02-28T00:41:09;14.20;;;6.93;;
43744;SDS011;29359;53.048;8.732;2023-02-28T00:43:11;10.68;;;7.05;;
43744;SDS011;29359;53.048;8.732;2023-02-28T00:45:13;9.15;;;6.30;;
43744;SDS011;29359;53.048;8.732;2023-02-28T00:47:14;11.10;;;6.25;;
43744;SDS011;29359;53.048;8.732;2023-02-28T00:49:16;11.65;;;5.68;;
43744;SDS011;29359;53.048;8.732;2023-02-28T00:51:17;13.77;;;6.40;;
43744;SDS011;29359;53.048;8.732;2023-02-28T00:53:19;11.77;;;5.97;;
43744;SDS011;29359;53.048;8.732;2023-02-28T00:55:21;8.68;;;5.60;;
43744;SDS011;29359;53.048;8.732;2023-02-28T00:57:22;7.65;;;5.97;;
43744;SDS011;29359;53.048;8.732;2023-02-28T00:59:24;10.68;;;5.25;;
43744;SDS011;29359;53.048;8.732;2023-02-28T01:01:26;14.35;;;5.93;;
43744;SDS011;29359;53.048;8.732;2023-02-28T01:03:28;10.07;;;5.68;;
43744;SDS011;29359;53.048;8.732;2023-02-28T01:05:29;8.10;;;5.53;;
43744;SDS011;29359;53.048;8.732;2023-02-28T01:07:31;8.10;;;5.50;;
43744;SDS011;29359;53.048;8.732;2023-02-28T01:09:32;8.77;;;6.18;;
43744;SDS011;29359;53.048;8.732;2023-02-28T01:11:34;11.68;;;6.60;;
43744;SDS011;29359;53.048;8.732;2023-02-28T01:13:36;9.45;;;6.55;;
43744;SDS011;29359;53.048;8.732;2023-02-28T01:15:42;14.45;;;5.80;;
43744;SDS011;29359;53.048;8.732;2023-02-28T01:17:47;12.15;;;6.68;;
43744;SDS011;29359;53.048;8.732;2023-02-28T01:19:48;11.77;;;6.18;;
43744;SDS011;29359;53.048;8.732;2023-02-28T01:21:50;8.98;;;6.60;;
43744;SDS011;29359;53.048;8.732;2023-02-28T01:23:51;13.85;;;7.32;;
43744;SDS011;29359;53.048;8.732;2023-02-28T01:25:53;12.27;;;6.25;;
43744;SDS011;29359;53.048;8.732;2023-02-28T01:27:54;9.57;;;6.72;;
43744;SDS011;29359;53.048;8.732;2023-02-28T01:29:56;12.68;;;6.55;;
43744;SDS011;29359;53.048;8.732;2023-02-28T01:31:57;12.15;;;6.32;;
43744;SDS011;29359;53.048;8.732;2023-02-28T01:34:00;9.27;;;6.50;;
43744;SDS011;29359;53.048;8.732;2023-02-28T01:36:03;9.20;;;6.28;;
43744;SDS011;29359;53.048;8.732;2023-02-28T01:38:07;15.80;;;7.50;;
43744;SDS011;29359;53.048;8.732;2023-02-28T01:40:22;11.77;;;6.68;;
43744;SDS011;29359;53.048;8.732;2023-02-28T01:42:23;13.95;;;7.03;;
43744;SDS011;29359;53.048;8.732;2023-02-28T01:46:54;13.68;;;6.25;;
43744;SDS011;29359;53.048;8.732;2023-02-28T01:48:59;13.55;;;6.30;;
43744;SDS011;29359;53.048;8.732;2023-02-28T01:53:13;10.75;;;6.15;;
43744;SDS011;29359;53.048;8.732;2023-02-28T01:55:19;12.32;;;6.53;;
43744;SDS011;29359;53.048;8.732;2023-02-28T01:57:24;10.18;;;6.03;;
43744;SDS011;29359;53.048;8.732;2023-02-28T01:59:38;14.57;;;6.22;;
43744;SDS011;29359;53.048;8.732;2023-02-28T02:01:47;10.23;;;6.35;;
43744;SDS011;29359;53.048;8.732;2023-02-28T02:03:50;13.23;;;6.30;;
43744;SDS011;29359;53.048;8.732;2023-02-28T02:05:57;12.52;;;7.20;;
43744;SDS011;29359;53.048;8.732;2023-02-28T02:08:03;11.77;;;6.18;;
43744;SDS011;29359;53.048;8.732;2023-02-28T02:12:26;8.57;;;5.72;;
43744;SDS011;29359;53.048;8.732;2023-02-28T02:21:47;9.05;;;5.78;;
43744;SDS011;29359;53.048;8.732;2023-02-28T02:24:03;14.32;;;7.38;;
43744;SDS011;29359;53.048;8.732;2023-02-28T02:29:06;14.35;;;6.97;;
43744;SDS011;29359;53.048;8.732;2023-02-28T02:31:37;11.32;;;6.43;;
43744;SDS011;29359;53.048;8.732;2023-02-28T02:36:37;14.45;;;6.95;;
43744;SDS011;29359;53.048;8.732;2023-02-28T02:38:52;12.30;;;6.80;;
43744;SDS011;29359;53.048;8.732;2023-02-28T02:43:19;9.30;;;6.05;;
43744;SDS011;29359;53.048;8.732;2023-02-28T02:45:34;12.70;;;7.00;;
43744;SDS011;29359;53.048;8.732;2023-02-28T02:47:46;12.45;;;7.65;;
43744;SDS011;29359;53.048;8.732;2023-02-28T02:49:50;9.88;;;6.60;;
43744;SDS011;29359;53.048;8.732;2023-02-28T02:51:53;12.63;;;6.70;;
43744;SDS011;29359;53.048;8.732;2023-02-28T02:56:10;9.70;;;7.13;;
43744;SDS011;29359;53.048;8.732;2023-02-28T02:58:14;14.98;;;7.03;;
43744;SDS011;29359;53.048;8.732;2023-02-28T03:00:22;13.98;;;7.45;;
43744;SDS011;29359;53.048;8.732;2023-02-28T03:02:27;19.80;;;7.60;;
43744;SDS011;29359;53.048;8.732;2023-02-28T03:04:38;18.48;;;7.38;;
43744;SDS011;29359;53.048;8.732;2023-02-28T03:06:44;9.68;;;6.75;;
43744;SDS011;29359;53.048;8.732;2023-02-28T03:08:46;11.10;;;7.30;;
43744;SDS011;29359;53.048;8.732;2023-02-28T03:10:51;11.75;;;7.18;;
43744;SDS011;29359;53.048;8.732;2023-02-28T03:13:42;13.20;;;7.35;;
43744;SDS011;29359;53.048;8.732;2023-02-28T03:18:01;10.18;;;7.88;;
43744;SDS011;29359;53.048;8.732;2023-02-28T03:22:32;9.13;;;6.72;;
43744;SDS011;29359;53.048;8.732;2023-02-28T03:24:45;10.98;;;7.03;;
43744;SDS011;29359;53.048;8.732;2023-02-28T03:26:54;11.00;;;6.85;;
43744;SDS011;29359;53.048;8.732;2023-02-28T03:31:30;12.07;;;7.05;;
43744;SDS011;29359;53.048;8.732;2023-02-28T03:33:38;11.95;;;6.88;;
43744;SDS011;29359;53.048;8.732;2023-02-28T03:35:45;9.85;;;6.85;;
43744;SDS011;29359;53.048;8.732;2023-02-28T03:37:58;9.10;;;6.32;;
43744;SDS011;29359;53.048;8.732;2023-02-28T03:40:07;10.43;;;7.30;;
43744;SDS011;29359;53.048;8.732;2023-02-28T03:42:14;12.13;;;6.67;;
43744;SDS011;29359;53.048;8.732;2023-02-28T03:44:24;13.38;;;6.65;;
43744;SDS011;29359;53.048;8.732;2023-02-28T03:46:31;9.27;;;6.57;;
43744;SDS011;29359;53.048;8.732;2023-02-28T03:48:39;10.02;;;6.40;;
43744;SDS011;29359;53.048;8.732;2023-02-28T03:50:46;9.07;;;6.20;;
43744;SDS011;29359;53.048;8.732;2023-02-28T03:52:51;9.93;;;6.15;;
43744;SDS011;29359;53.048;8.732;2023-02-28T03:55:03;6.75;;;5.20;;
43744;SDS011;29359;53.048;8.732;2023-02-28T03:57:32;9.73;;;6.13;;
43744;SDS011;29359;53.048;8.732;2023-02-28T03:59:45;12.57;;;6.07;;
43744;SDS011;29359;53.048;8.732;2023-02-28T04:01:50;11.02;;;5.55;;
43744;SDS011;29359;53.048;8.732;2023-02-28T04:03:52;9.80;;;5.35;;
43744;SDS011;29359;53.048;8.732;2023-02-28T04:05:54;10.07;;;5.40;;
43744;SDS011;29359;53.048;8.732;2023-02-28T04:08:07;11.25;;;4.60;;
43744;SDS011;29359;53.048;8.732;2023-02-28T04:10:09;6.05;;;4.65;;
43744;SDS011;29359;53.048;8.732;2023-02-28T04:12:12;8.00;;;4.63;;
43744;SDS011;29359;53.048;8.732;2023-02-28T04:14:14;5.18;;;4.38;;
43744;SDS011;29359;53.048;8.732;2023-02-28T04:16:16;9.23;;;4.88;;
43744;SDS011;29359;53.048;8.732;2023-02-28T04:18:34;7.30;;;4.68;;
43744;SDS011;29359;53.048;8.732;2023-02-28T04:20:36;6.30;;;4.35;;
43744;SDS011;29359;53.048;8.732;2023-02-28T04:22:37;6.88;;;4.45;;
43744;SDS011;29359;53.048;8.732;2023-02-28T04:24:39;4.40;;;3.95;;
43744;SDS011;29359;53.048;8.732;2023-02-28T04:26:43;7.97;;;5.18;;
43744;SDS011;29359;53.048;8.732;2023-02-28T04:28:49;6.65;;;4.78;;
43744;SDS011;29359;53.048;8.732;2023-02-28T04:30:55;5.13;;;4.60;;
43744;SDS011;29359;53.048;8.732;2023-02-28T04:32:59;9.37;;;5.40;;
43744;SDS011;29359;53.048;8.732;2023-02-28T04:35:01;8.55;;;5.20;;
43744;SDS011;29359;53.048;8.732;2023-02-28T04:37:03;8.98;;;4.80;;
43744;SDS011;29359;53.048;8.732;2023-02-28T04:39:14;10.25;;;4.63;;
43744;SDS011;29359;53.048;8.732;2023-02-28T04:41:16;7.30;;;4.93;;
43744;SDS011;29359;53.048;8.732;2023-02-28T04:43:18;4.93;;;4.43;;
43744;SDS011;29359;53.048;8.732;2023-02-28T04:45:20;6.18;;;4.47;;
43744;SDS011;29359;53.048;8.732;2023-02-28T04:47:21;5.65;;;4.45;;
43744;SDS011;29359;53.048;8.732;2023-02-28T04:49:23;9.05;;;4.78;;
43744;SDS011;29359;53.048;8.732;2023-02-28T04:51:24;6.85;;;4.90;;
43744;SDS011;29359;53.048;8.732;2023-02-28T04:53:27;6.53;;;4.80;;
43744;SDS011;29359;53.048;8.732;2023-02-28T04:55:29;6.57;;;4.68;;
43744;SDS011;29359;53.048;8.732;2023-02-28T04:57:30;5.90;;;4.72;;
43744;SDS011;29359;53.048;8.732;2023-02-28T04:59:32;10.80;;;5.10;;
43744;SDS011;29359;53.048;8.732;2023-02-28T05:01:34;9.70;;;4.35;;
43744;SDS011;29359;53.048;8.732;2023-02-28T05:03:36;11.38;;;4.65;;
43744;SDS011;29359;53.048;8.732;2023-02-28T05:05:37;6.25;;;4.63;;
43744;SDS011;29359;53.048;8.732;2023-02-28T05:07:38;6.07;;;4.55;;
43744;SDS011;29359;53.048;8.732;2023-02-28T05:09:40;8.05;;;4.15;;
43744;SDS011;29359;53.048;8.732;2023-02-28T05:11:41;8.43;;;4.72;;
43744;SDS011;29359;53.048;8.732;2023-02-28T05:13:43;7.88;;;4.88;;
43744;SDS011;29359;53.048;8.732;2023-02-28T05:15:45;6.25;;;4.35;;
43744;SDS011;29359;53.048;8.732;2023-02-28T05:17:46;9.20;;;5.50;;
43744;SDS011;29359;53.048;8.732;2023-02-28T05:19:48;8.43;;;5.15;;
43744;SDS011;29359;53.048;8.732;2023-02-28T05:21:50;8.48;;;4.95;;
43744;SDS011;29359;53.048;8.732;2023-02-28T05:23:55;5.50;;;4.57;;
43744;SDS011;29359;53.048;8.732;2023-02-28T05:25:58;6.88;;;5.25;;
43744;SDS011;29359;53.048;8.732;2023-02-28T05:27:59;7.68;;;4.60;;
43744;SDS011;29359;53.048;8.732;2023-02-28T05:30:01;8.27;;;5.00;;
43744;SDS011;29359;53.048;8.732;2023-02-28T05:32:04;8.50;;;4.68;;
43744;SDS011;29359;53.048;8.732;2023-02-28T05:34:06;7.53;;;4.63;;
43744;SDS011;29359;53.048;8.732;2023-02-28T05:36:07;6.20;;;5.20;;
43744;SDS011;29359;53.048;8.732;2023-02-28T05:38:09;5.80;;;4.20;;
43744;SDS011;29359;53.048;8.732;2023-02-28T05:40:11;9.90;;;5.10;;
43744;SDS011;29359;53.048;8.732;2023-02-28T05:42:12;5.28;;;4.10;;
43744;SDS011;29359;53.048;8.732;2023-02-28T05:44:14;9.45;;;4.13;;
43744;SDS011;29359;53.048;8.732;2023-02-28T05:46:16;5.45;;;4.80;;
43744;SDS011;29359;53.048;8.732;2023-02-28T05:48:18;5.78;;;4.10;;
43744;SDS011;29359;53.048;8.732;2023-02-28T05:50:19;9.65;;;4.88;;
43744;SDS011;29359;53.048;8.732;2023-02-28T05:52:21;4.70;;;4.25;;
43744;SDS011;29359;53.048;8.732;2023-02-28T05:54:23;6.70;;;4.20;;
43744;SDS011;29359;53.048;8.732;2023-02-28T05:56:24;7.57;;;4.15;;
43744;SDS011;29359;53.048;8.732;2023-02-28T05:58:26;10.75;;;4.75;;
43744;SDS011;29359;53.048;8.732;2023-02-28T06:00:31;6.32;;;4.97;;
43744;SDS011;29359;53.048;8.732;2023-02-28T06:02:33;5.53;;;4.85;;
43744;SDS011;29359;53.048;8.732;2023-02-28T06:04:34;8.15;;;5.18;;
43744;SDS011;29359;53.048;8.732;2023-02-28T06:06:36;5.68;;;4.60;;
43744;SDS011;29359;53.048;8.732;2023-02-28T06:08:38;7.68;;;4.78;;
43744;SDS011;29359;53.048;8.732;2023-02-28T06:10:39;7.82;;;5.22;;
43744;SDS011;29359;53.048;8.732;2023-02-28T06:12:41;6.30;;;4.78;;
43744;SDS011;29359;53.048;8.732;2023-02-28T06:14:43;7.53;;;5.35;;
43744;SDS011;29359;53.048;8.732;2023-02-28T06:16:44;7.35;;;5.15;;
43744;SDS011;29359;53.048;8.732;2023-02-28T06:18:46;7.45;;;5.13;;
43744;SDS011;29359;53.048;8.732;2023-02-28T06:20:54;9.07;;;5.35;;
43744;SDS011;29359;53.048;8.732;2023-02-28T06:22:56;8.30;;;5.50;;
43744;SDS011;29359;53.048;8.732;2023-02-28T06:25:01;10.52;;;5.20;;
43744;SDS011;29359;53.048;8.732;2023-02-28T06:27:04;9.27;;;5.95;;
43744;SDS011;29359;53.048;8.732;2023-02-28T06:29:06;7.18;;;4.82;;
43744;SDS011;29359;53.048;8.732;2023-02-28T06:31:09;9.07;;;5.43;;
43744;SDS011;29359;53.048;8.732;2023-02-28T06:33:12;10.73;;;5.40;;
43744;SDS011;29359;53.048;8.732;2023-02-28T06:35:13;11.45;;;5.38;;
43744;SDS011;29359;53.048;8.732;2023-02-28T06:37:15;9.82;;;5.47;;
43744;SDS011;29359;53.048;8.732;2023-02-28T06:39:17;9.32;;;4.75;;
43744;SDS011;29359;53.048;8.732;2023-02-28T06:41:19;17.35;;;7.55;;
43744;SDS011;29359;53.048;8.732;2023-02-28T06:43:22;7.90;;;5.35;;
43744;SDS011;29359;53.048;8.732;2023-02-28T06:45:24;9.32;;;5.43;;
43744;SDS011;29359;53.048;8.732;2023-02-28T06:47:27;7.13;;;4.88;;
43744;SDS011;29359;53.048;8.732;2023-02-28T06:49:29;14.45;;;5.70;;
43744;SDS011;29359;53.048;8.732;2023-02-28T06:51:31;8.93;;;5.50;;
43744;SDS011;29359;53.048;8.732;2023-02-28T06:53:33;11.80;;;5.50;;
43744;SDS011;29359;53.048;8.732;2023-02-28T06:55:37;8.27;;;5.50;;
43744;SDS011;29359;53.048;8.732;2023-02-28T06:57:39;9.70;;;5.82;;
43744;SDS011;29359;53.048;8.732;2023-02-28T06:59:40;19.20;;;6.78;;
43744;SDS011;29359;53.048;8.732;2023-02-28T07:01:42;8.48;;;5.20;;
43744;SDS011;29359;53.048;8.732;2023-02-28T07:03:43;12.35;;;5.72;;
43744;SDS011;29359;53.048;8.732;2023-02-28T07:05:45;11.77;;;5.65;;
43744;SDS011;29359;53.048;8.732;2023-02-28T07:07:46;8.20;;;5.93;;
43744;SDS011;29359;53.048;8.732;2023-02-28T07:09:48;11.20;;;5.75;;
43744;SDS011;29359;53.048;8.732;2023-02-28T07:11:49;11.75;;;6.43;;
43744;SDS011;29359;53.048;8.732;2023-02-28T07:13:51;7.28;;;5.93;;
43744;SDS011;29359;53.048;8.732;2023-02-28T07:15:55;8.77;;;5.95;;
43744;SDS011;29359;53.048;8.732;2023-02-28T07:17:57;9.95;;;5.60;;
43744;SDS011;29359;53.048;8.732;2023-02-28T07:19:59;7.00;;;5.35;;
43744;SDS011;29359;53.048;8.732;2023-02-28T07:22:00;8.48;;;5.50;;
43744;SDS011;29359;53.048;8.732;2023-02-28T07:24:03;7.15;;;5.18;;
43744;SDS011;29359;53.048;8.732;2023-02-28T07:26:05;7.38;;;5.50;;
43744;SDS011;29359;53.048;8.732;2023-02-28T07:28:07;10.43;;;5.95;;
43744;SDS011;29359;53.048;8.732;2023-02-28T07:30:09;7.38;;;5.20;;
43744;SDS011;29359;53.048;8.732;2023-02-28T07:32:11;8.35;;;5.40;;
43744;SDS011;29359;53.048;8.732;2023-02-28T07:34:13;12.52;;;5.60;;
43744;SDS011;29359;53.048;8.732;2023-02-28T07:36:15;12.15;;;5.00;;
43744;SDS011;29359;53.048;8.732;2023-02-28T07:38:19;8.55;;;5.45;;
43744;SDS011;29359;53.048;8.732;2023-02-28T07:40:21;7.75;;;5.80;;
43744;SDS011;29359;53.048;8.732;2023-02-28T07:42:23;9.00;;;5.90;;
43744;SDS011;29359;53.048;8.732;2023-02-28T07:44:24;6.30;;;5.18;;
43744;SDS011;29359;53.048;8.732;2023-02-28T07:46:26;8.02;;;5.50;;
43744;SDS011;29359;53.048;8.732;2023-02-28T07:48:31;11.02;;;5.28;;
43744;SDS011;29359;53.048;8.732;2023-02-28T07:50:32;5.85;;;4.70;;
43744;SDS011;29359;53.048;8.732;2023-02-28T07:52:38;6.32;;;4.38;;
43744;SDS011;29359;53.048;8.732;2023-02-28T07:54:40;13.07;;;5.10;;
43744;SDS011;29359;53.048;8.732;2023-02-28T07:56:42;7.03;;;4.68;;
43744;SDS011;29359;53.048;8.732;2023-02-28T07:58:43;6.78;;;4.80;;
43744;SDS011;29359;53.048;8.732;2023-02-28T08:00:45;7.32;;;4.90;;
43744;SDS011;29359;53.048;8.732;2023-02-28T08:02:46;13.65;;;4.90;;
43744;SDS011;29359;53.048;8.732;2023-02-28T08:04:48;9.65;;;4.60;;
43744;SDS011;29359;53.048;8.732;2023-02-28T08:06:50;17.58;;;5.50;;
43744;SDS011;29359;53.048;8.732;2023-02-28T08:08:54;8.95;;;5.30;;
43744;SDS011;29359;53.048;8.732;2023-02-28T08:11:00;10.00;;;5.13;;
43744;SDS011;29359;53.048;8.732;2023-02-28T08:13:03;6.72;;;5.10;;
43744;SDS011;29359;53.048;8.732;2023-02-28T08:15:05;6.10;;;4.85;;
43744;SDS011;29359;53.048;8.732;2023-02-28T08:17:07;7.13;;;4.72;;
43744;SDS011;29359;53.048;8.732;2023-02-28T08:19:08;6.30;;;4.32;;
43744;SDS011;29359;53.048;8.732;2023-02-28T08:21:10;8.07;;;4.40;;
43744;SDS011;29359;53.048;8.732;2023-02-28T08:23:12;6.43;;;4.15;;
43744;SDS011;29359;53.048;8.732;2023-02-28T08:25:13;5.03;;;3.80;;
43744;SDS011;29359;53.048;8.732;2023-02-28T08:27:15;10.75;;;4.63;;
43744;SDS011;29359;53.048;8.732;2023-02-28T08:29:16;7.38;;;4.40;;
43744;SDS011;29359;53.048;8.732;2023-02-28T08:31:18;8.45;;;4.72;;
43744;SDS011;29359;53.048;8.732;2023-02-28T08:33:20;5.95;;;4.55;;
43744;SDS011;29359;53.048;8.732;2023-02-28T08:35:21;7.53;;;4.57;;
43744;SDS011;29359;53.048;8.732;2023-02-28T08:37:23;6.78;;;2.95;;
43744;SDS011;29359;53.048;8.732;2023-02-28T08:39:25;4.10;;;2.70;;
43744;SDS011;29359;53.048;8.732;2023-02-28T08:41:27;4.40;;;2.63;;
43744;SDS011;29359;53.048;8.732;2023-02-28T08:43:29;2.45;;;2.20;;
43744;SDS011;29359;53.048;8.732;2023-02-28T08:45:30;6.03;;;2.40;;
43744;SDS011;29359;53.048;8.732;2023-02-28T08:47:32;7.43;;;2.67;;
43744;SDS011;29359;53.048;8.732;2023-02-28T08:49:34;2.90;;;2.60;;
43744;SDS011;29359;53.048;8.732;2023-02-28T08:51:35;3.13;;;2.17;;
43744;SDS011;29359;53.048;8.732;2023-02-28T08:53:37;7.93;;;2.60;;
43744;SDS011;29359;53.048;8.732;2023-02-28T08:55:40;2.45;;;1.95;;
43744;SDS011;29359;53.048;8.732;2023-02-28T08:57:41;3.65;;;2.75;;
43744;SDS011;29359;53.048;8.732;2023-02-28T08:59:43;3.70;;;2.28;;
43744;SDS011;29359;53.048;8.732;2023-02-28T09:01:44;2.35;;;1.92;;
43744;SDS011;29359;53.048;8.732;2023-02-28T09:03:47;5.68;;;2.08;;
43744;SDS011;29359;53.048;8.732;2023-02-28T09:07:55;3.58;;;2.20;;
43744;SDS011;29359;53.048;8.732;2023-02-28T09:09:56;5.28;;;2.00;;
43744;SDS011;29359;53.048;8.732;2023-02-28T09:11:58;2.90;;;2.08;;
43744;SDS011;29359;53.048;8.732;2023-02-28T09:14:00;2.17;;;1.75;;
43744;SDS011;29359;53.048;8.732;2023-02-28T09:16:06;3.28;;;1.60;;
43744;SDS011;29359;53.048;8.732;2023-02-28T09:18:10;5.10;;;1.70;;
43744;SDS011;29359;53.048;8.732;2023-02-28T09:20:12;3.92;;;1.73;;
43744;SDS011;29359;53.048;8.732;2023-02-28T09:22:13;2.83;;;1.95;;
43744;SDS011;29359;53.048;8.732;2023-02-28T09:24:15;3.10;;;1.50;;
43744;SDS011;29359;53.048;8.732;2023-02-28T09:26:17;1.70;;;1.30;;
43744;SDS011;29359;53.048;8.732;2023-02-28T09:28:21;3.92;;;1.50;;
43744;SDS011;29359;53.048;8.732;2023-02-28T09:30:23;3.15;;;1.55;;
43744;SDS011;29359;53.048;8.732;2023-02-28T09:32:25;1.52;;;1.20;;
43744;SDS011;29359;53.048;8.732;2023-02-28T09:34:27;2.78;;;1.50;;
43744;SDS011;29359;53.048;8.732;2023-02-28T09:36:32;3.33;;;1.10;;
43744;SDS011;29359;53.048;8.732;2023-02-28T09:38:45;1.23;;;0.82;;
43744;SDS011;29359;53.048;8.732;2023-02-28T09:40:56;1.00;;;0.77;;
43744;SDS011;29359;53.048;8.732;2023-02-28T09:43:00;2.45;;;0.90;;
43744;SDS011;29359;53.048;8.732;2023-02-28T09:45:02;2.38;;;0.75;;
43744;SDS011;29359;53.048;8.732;2023-02-28T09:47:17;2.55;;;0.80;;
43744;SDS011;29359;53.048;8.732;2023-02-28T09:49:22;1.58;;;0.60;;
43744;SDS011;29359;53.048;8.732;2023-02-28T09:51:30;1.25;;;0.80;;
43744;SDS011;29359;53.048;8.732;2023-02-28T09:53:34;0.95;;;0.65;;
43744;SDS011;29359;53.048;8.732;2023-02-28T09:55:48;1.08;;;0.60;;
43744;SDS011;29359;53.048;8.732;2023-02-28T09:57:52;0.85;;;0.60;;
43744;SDS011;29359;53.048;8.732;2023-02-28T10:02:23;2.00;;;0.82;;
43744;SDS011;29359;53.048;8.732;2023-02-28T10:06:56;0.93;;;0.73;;
43744;SDS011;29359;53.048;8.732;2023-02-28T10:09:01;0.80;;;0.70;;
43744;SDS011;29359;53.048;8.732;2023-02-28T10:11:05;1.85;;;0.90;;
43744;SDS011;29359;53.048;8.732;2023-02-28T10:13:16;1.27;;;0.95;;
43744;SDS011;29359;53.048;8.732;2023-02-28T10:15:27;1.92;;;1.00;;
43744;SDS011;29359;53.048;8.732;2023-02-28T10:17:37;1.27;;;1.00;;
43744;SDS011;29359;53.048;8.732;2023-02-28T10:20:02;1.88;;;0.85;;
43744;SDS011;29359;53.048;8.732;2023-02-28T10:24:31;1.40;;;1.00;;
43744;SDS011;29359;53.048;8.732;2023-02-28T10:26:40;2.70;;;1.60;;
43744;SDS011;29359;53.048;8.732;2023-02-28T10:28:46;1.33;;;0.90;;
43744;SDS011;29359;53.048;8.732;2023-02-28T10:30:51;1.17;;;0.80;;
43744;SDS011;29359;53.048;8.732;2023-02-28T10:32:54;1.40;;;1.00;;
43744;SDS011;29359;53.048;8.732;2023-02-28T10:37:18;1.20;;;0.90;;
43744;SDS011;29359;53.048;8.732;2023-02-28T10:41:45;3.35;;;0.90;;
43744;SDS011;29359;53.048;8.732;2023-02-28T10:43:46;2.47;;;1.17;;
43744;SDS011;29359;53.048;8.732;2023-02-28T10:45:58;1.05;;;0.95;;
43744;SDS011;29359;53.048;8.732;2023-02-28T10:48:02;1.90;;;1.23;;
43744;SDS011;29359;53.048;8.732;2023-02-28T10:50:06;2.35;;;1.75;;
43744;SDS011;29359;53.048;8.732;2023-02-28T10:52:44;1.80;;;1.63;;
43744;SDS011;29359;53.048;8.732;2023-02-28T10:54:45;3.67;;;1.25;;
43744;SDS011;29359;53.048;8.732;2023-02-28T10:57:05;1.25;;;0.90;;
43744;SDS011;29359;53.048;8.732;2023-02-28T10:59:26;1.95;;;1.10;;
43744;SDS011;29359;53.048;8.732;2023-02-28T11:03:33;2.35;;;1.00;;
43744;SDS011;29359;53.048;8.732;2023-02-28T11:05:36;1.50;;;0.93;;
43744;SDS011;29359;53.048;8.732;2023-02-28T11:07:37;3.28;;;0.90;;
43744;SDS011;29359;53.048;8.732;2023-02-28T11:09:54;0.93;;;0.68;;
43744;SDS011;29359;53.048;8.732;2023-02-28T11:11:57;2.65;;;1.00;;
43744;SDS011;29359;53.048;8.732;2023-02-28T11:14:04;1.25;;;0.90;;
43744;SDS011;29359;53.048;8.732;2023-02-28T11:16:08;1.95;;;0.80;;
43744;SDS011;29359;53.048;8.732;2023-02-28T11:20:18;2.75;;;1.05;;
43744;SDS011;29359;53.048;8.732;2023-02-28T11:22:26;3.03;;;1.02;;
43744;SDS011;29359;53.048;8.732;2023-02-28T11:24:31;3.30;;;0.90;;
43744;SDS011;29359;53.048;8.732;2023-02-28T11:26:55;2.70;;;0.93;;
43744;SDS011;29359;53.048;8.732;2023-02-28T11:29:09;2.70;;;0.85;;
43744;SDS011;29359;53.048;8.732;2023-02-28T11:35:29;1.35;;;0.90;;
43744;SDS011;29359;53.048;8.732;2023-02-28T11:37:36;2.05;;;0.95;;
43744;SDS011;29359;53.048;8.732;2023-02-28T11:39:39;2.15;;;0.80;;
43744;SDS011;29359;53.048;8.732;2023-02-28T11:44:08;2.15;;;1.55;;
43744;SDS011;29359;53.048;8.732;2023-02-28T11:51:23;1.35;;;1.13;;
43744;SDS011;29359;53.048;8.732;2023-02-28T11:56:05;0.70;;;0.70;;
43744;SDS011;29359;53.048;8.732;2023-02-28T12:00:53;1.38;;;1.05;;
43744;SDS011;29359;53.048;8.732;2023-02-28T12:03:06;2.30;;;0.82;;
43744;SDS011;29359;53.048;8.732;2023-02-28T12:10:21;0.75;;;0.73;;
43744;SDS011;29359;53.048;8.732;2023-02-28T12:19:21;0.93;;;0.82;;
43744;SDS011;29359;53.048;8.732;2023-02-28T12:25:43;2.05;;;0.85;;
43744;SDS011;29359;53.048;8.732;2023-02-28T12:27:49;1.23;;;0.88;;
43744;SDS011;29359;53.048;8.732;2023-02-28T12:29:56;1.65;;;1.00;;
43744;SDS011;29359;53.048;8.732;2023-02-28T12:32:06;3.55;;;1.15;;
43744;SDS011;29359;53.048;8.732;2023-02-28T12:34:10;1.85;;;1.02;;
43744;SDS011;29359;53.048;8.732;2023-02-28T12:36:17;0.90;;;0.80;;
43744;SDS011;29359;53.048;8.732;2023-02-28T12:40:47;2.45;;;0.80;;
43744;SDS011;29359;53.048;8.732;2023-02-28T12:42:55;1.25;;;0.80;;
43744;SDS011;29359;53.048;8.732;2023-02-28T12:45:02;1.98;;;1.20;;
43744;SDS011;29359;53.048;8.732;2023-02-28T12:47:17;0.85;;;0.77;;
43744;SDS011;29359;53.048;8.732;2023-02-28T12:49:27;2.35;;;0.80;;
43744;SDS011;29359;53.048;8.732;2023-02-28T12:51:32;1.00;;;0.80;;
43744;SDS011;29359;53.048;8.732;2023-02-28T12:56:12;1.67;;;0.77;;
43744;SDS011;29359;53.048;8.732;2023-02-28T12:58:27;2.28;;;0.95;;
43744;SDS011;29359;53.048;8.732;2023-02-28T13:00:35;1.70;;;1.05;;
43744;SDS011;29359;53.048;8.732;2023-02-28T13:09:54;1.52;;;0.93;;
43744;SDS011;29359;53.048;8.732;2023-02-28T13:11:58;1.00;;;0.90;;
43744;SDS011;29359;53.048;8.732;2023-02-28T13:14:04;1.13;;;0.80;;
43744;SDS011;29359;53.048;8.732;2023-02-28T13:16:15;2.50;;;0.80;;
43744;SDS011;29359;53.048;8.732;2023-02-28T13:20:46;1.35;;;0.95;;
43744;SDS011;29359;53.048;8.732;2023-02-28T13:22:51;1.13;;;0.80;;
43744;SDS011;29359;53.048;8.732;2023-02-28T13:24:54;1.02;;;0.77;;
43744;SDS011;29359;53.048;8.732;2023-02-28T13:31:16;1.20;;;0.82;;
43744;SDS011;29359;53.048;8.732;2023-02-28T13:35:37;2.55;;;1.10;;
43744;SDS011;29359;53.048;8.732;2023-02-28T13:37:44;3.13;;;1.33;;
43744;SDS011;29359;53.048;8.732;2023-02-28T13:39:54;0.98;;;0.80;;
43744;SDS011;29359;53.048;8.732;2023-02-28T13:41:57;1.30;;;0.95;;
43744;SDS011;29359;53.048;8.732;2023-02-28T13:45:18;1.42;;;1.10;;
43744;SDS011;29359;53.048;8.732;2023-02-28T13:53:54;0.65;;;0.65;;
43744;SDS011;29359;53.048;8.732;2023-02-28T14:03:21;1.55;;;0.60;;
43744;SDS011;29359;53.048;8.732;2023-02-28T14:05:39;1.50;;;0.90;;
43744;SDS011;29359;53.048;8.732;2023-02-28T14:07:43;0.82;;;0.80;;
43744;SDS011;29359;53.048;8.732;2023-02-28T14:09:51;2.13;;;1.10;;
43744;SDS011;29359;53.048;8.732;2023-02-28T14:12:49;1.00;;;0.77;;
43744;SDS011;29359;53.048;8.732;2023-02-28T14:16:47;1.15;;;0.90;;
43744;SDS011;29359;53.048;8.732;2023-02-28T14:18:51;1.00;;;0.70;;
43744;SDS011;29359;53.048;8.732;2023-02-28T14:25:54;3.70;;;0.80;;
43744;SDS011;29359;53.048;8.732;2023-02-28T14:30:57;5.22;;;1.10;;
43744;SDS011;29359;53.048;8.732;2023-02-28T14:35:56;1.80;;;0.93;;
43744;SDS011;29359;53.048;8.732;2023-02-28T14:38:11;1.15;;;0.85;;
43744;SDS011;29359;53.048;8.732;2023-02-28T14:44:39;1.85;;;1.02;;